Time;durP1;ratioP1;P1;durP2;ratioP2;P2;SDS_P1;SDS_P2;PMS_P1;PMS_P2;Temp;Humidity;BMP_temperature;BMP_pressure;BME280_temperature;BME280_humidity;BME280_pressure;Samples;Min_cycle;Max_cycle;Signal;HPM_P1;HPM_P2
2023/07/26 00:00:45;;;;;;;3.63;2.22;;;13.10;99.90;;;;;;5034047;28;20444;-64
2023/07/26 00:03:11;;;;;;;3.10;1.83;;;13.40;99.90;;;;;;5033692;28;20053;-64
2023/07/26 00:05:36;;;;;;;4.05;2.28;;;12.70;99.90;;;;;;5033615;28;20084;-64
2023/07/26 00:08:02;;;;;;;4.53;2.28;;;13.00;99.90;;;;;;5033910;28;20041;-64
2023/07/26 00:10:27;;;;;;;4.43;1.95;;;12.50;1.00;;;;;;5033881;28;20044;-65
2023/07/26 00:12:53;;;;;;;4.75;2.05;;;12.90;1.00;;;;;;5033683;28;20030;-64
2023/07/26 00:15:19;;;;;;;3.08;1.95;;;12.50;7.20;;;;;;5033827;28;20045;-64
2023/07/26 00:17:44;;;;;;;5.50;2.25;;;12.60;67.10;;;;;;5033724;28;20036;-64
2023/07/26 00:20:10;;;;;;;4.10;2.28;;;12.70;99.90;;;;;;5033672;28;20033;-65
2023/07/26 00:22:36;;;;;;;6.45;2.60;;;12.60;99.90;;;;;;5032041;28;20116;-64
2023/07/26 00:25:02;;;;;;;4.75;2.50;;;12.60;99.90;;;;;;5033641;28;20168;-64
2023/07/26 00:27:27;;;;;;;5.13;2.40;;;13.10;99.90;;;;;;5033551;28;20450;-64
2023/07/26 00:29:53;;;;;;;3.58;2.30;;;12.90;99.90;;;;;;5033442;28;20562;-64
2023/07/26 00:32:18;;;;;;;7.55;2.22;;;12.60;99.90;;;;;;5031994;28;20489;-64
2023/07/26 00:34:44;;;;;;;4.88;2.35;;;12.70;99.90;;;;;;5033358;28;20497;-64
2023/07/26 00:37:10;;;;;;;3.42;2.60;;;12.50;99.90;;;;;;5033416;28;20041;-65
2023/07/26 00:39:35;;;;;;;3.15;2.20;;;12.70;99.90;;;;;;5031811;28;20117;-70
2023/07/26 00:42:01;;;;;;;6.47;2.55;;;13.30;99.90;;;;;;5031890;28;20045;-65
2023/07/26 00:44:26;;;;;;;4.75;2.33;;;13.60;99.90;;;;;;5033316;28;20048;-64
2023/07/26 00:46:52;;;;;;;4.05;2.50;;;12.80;99.90;;;;;;5031776;28;20056;-64
2023/07/26 00:49:18;;;;;;;5.18;2.47;;;13.00;99.90;;;;;;5033313;28;20045;-64
2023/07/26 00:51:43;;;;;;;4.35;2.22;;;13.00;99.90;;;;;;5033620;28;20497;-64
2023/07/26 00:54:09;;;;;;;4.82;2.25;;;13.80;99.90;;;;;;5032843;28;20041;-65
2023/07/26 00:56:35;;;;;;;4.70;2.50;;;12.80;99.90;;;;;;5033188;28;20039;-64
2023/07/26 00:59:01;;;;;;;5.10;2.40;;;12.80;99.90;;;;;;5032890;28;20037;-64
2023/07/26 01:01:27;;;;;;;3.70;2.40;;;12.90;99.90;;;;;;5033120;28;20034;-65
2023/07/26 01:03:53;;;;;;;4.72;2.50;;;13.00;99.90;;;;;;5032712;28;20057;-65
2023/07/26 01:06:48;;;;;;;5.95;2.55;;;12.70;99.90;;;;;;5033074;28;20407;-65
2023/07/26 01:09:53;;;;;;;5.90;2.50;;;12.80;99.90;;;;;;5036053;28;20090;-65
2023/07/26 01:12:23;;;;;;;4.53;2.65;;;13.40;99.90;;;;;;5015822;28;20049;-64
2023/07/26 01:14:57;;;;;;;4.20;2.00;;;12.70;99.90;;;;;;5037118;28;20112;-65
2023/07/26 01:17:23;;;;;;;4.70;2.67;;;13.00;99.90;;;;;;5037165;28;20492;-64
2023/07/26 01:19:48;;;;;;;3.88;2.20;;;13.00;99.90;;;;;;5037084;28;20076;-64
2023/07/26 01:22:14;;;;;;;3.70;2.67;;;13.10;99.90;;;;;;5037030;28;20040;-64
2023/07/26 01:24:40;;;;;;;5.03;2.78;;;12.70;99.90;;;;;;5036962;28;20037;-64
2023/07/26 01:27:05;;;;;;;4.20;2.72;;;13.10;1.00;;;;;;5036976;28;20523;-64
2023/07/26 01:29:31;;;;;;;4.45;2.45;;;12.80;1.00;;;;;;5035314;28;20049;-64
2023/07/26 01:31:57;;;;;;;4.00;2.50;;;12.80;1.00;;;;;;5036531;28;20041;-64
2023/07/26 01:34:23;;;;;;;3.78;2.33;;;12.80;1.00;;;;;;5036757;28;20600;-64
2023/07/26 01:36:51;;;;;;;5.38;2.60;;;12.90;1.00;;;;;;5036731;28;20071;-65
2023/07/26 01:39:18;;;;;;;4.97;2.63;;;13.00;1.00;;;;;;5036382;28;20077;-65
2023/07/26 01:41:45;;;;;;;4.90;2.42;;;12.80;1.00;;;;;;5036646;28;20396;-65
2023/07/26 01:44:12;;;;;;;8.25;3.00;;;12.90;1.00;;;;;;5036341;28;20072;-64
2023/07/26 01:46:37;;;;;;;4.90;2.40;;;12.70;1.00;;;;;;5036545;28;20065;-64
2023/07/26 01:49:03;;;;;;;3.38;2.30;;;12.80;1.00;;;;;;5036539;28;20041;-64
2023/07/26 01:51:29;;;;;;;4.85;2.33;;;12.90;1.00;;;;;;5036501;28;20041;-64
2023/07/26 01:53:54;;;;;;;6.15;2.50;;;12.70;1.00;;;;;;5036369;28;20046;-65
2023/07/26 01:56:20;;;;;;;4.93;2.22;;;13.00;1.00;;;;;;5036319;28;20113;-64
2023/07/26 01:58:46;;;;;;;3.33;2.20;;;13.10;1.00;;;;;;5035999;28;20504;-64
2023/07/26 02:01:11;;;;;;;4.10;2.28;;;12.80;1.00;;;;;;5035999;28;20045;-64
2023/07/26 02:03:37;;;;;;;8.25;2.80;;;12.80;1.00;;;;;;5034514;28;20049;-65
2023/07/26 02:06:03;;;;;;;4.70;2.20;;;12.70;1.00;;;;;;5036207;28;20091;-64
2023/07/26 02:08:28;;;;;;;4.38;2.63;;;12.70;1.00;;;;;;5036132;28;20049;-64
2023/07/26 02:10:54;;;;;;;7.20;2.58;;;12.70;1.00;;;;;;5036083;28;20519;-65
2023/07/26 02:13:19;;;;;;;6.65;2.85;;;12.70;1.00;;;;;;5035985;28;20053;-65
2023/07/26 02:15:46;;;;;;;4.80;2.65;;;12.90;1.00;;;;;;5036031;28;20394;-64
2023/07/26 02:18:12;;;;;;;5.82;2.80;;;12.70;12.80;;;;;;5034474;28;20095;-65
2023/07/26 02:20:38;;;;;;;5.03;2.92;;;13.20;1.00;;;;;;5034721;28;20037;-64
2023/07/26 02:23:03;;;;;;;4.35;2.63;;;12.90;1.00;;;;;;5035907;28;20041;-64
2023/07/26 02:25:29;;;;;;;3.88;2.35;;;12.60;1.00;;;;;;5035797;28;20043;-64
2023/07/26 02:27:54;;;;;;;4.93;2.67;;;12.60;12.90;;;;;;5035804;28;20041;-64
2023/07/26 02:30:20;;;;;;;4.55;2.50;;;12.90;8.60;;;;;;5035797;28;20080;-65
2023/07/26 02:32:46;;;;;;;4.18;2.35;;;12.90;1.00;;;;;;5035634;28;20520;-64
2023/07/26 02:35:11;;;;;;;4.55;2.60;;;12.90;3.80;;;;;;5035589;28;20111;-65
2023/07/26 02:37:37;;;;;;;4.30;2.78;;;12.90;14.50;;;;;;5035278;28;20104;-64
2023/07/26 02:40:03;;;;;;;5.60;2.55;;;13.10;29.10;;;;;;5035586;28;20037;-64
2023/07/26 02:42:28;;;;;;;4.88;2.78;;;12.50;16.10;;;;;;5035562;28;20060;-64
2023/07/26 02:44:55;;;;;;;5.75;2.42;;;12.60;24.70;;;;;;5035512;28;20038;-65
2023/07/26 02:47:20;;;;;;;5.22;3.00;;;12.80;20.00;;;;;;5035176;28;20056;-66
2023/07/26 02:49:46;;;;;;;4.45;2.72;;;12.50;14.40;;;;;;5035440;28;20045;-65
2023/07/26 02:52:12;;;;;;;5.72;2.75;;;12.40;32.00;;;;;;5035343;28;20041;-64
2023/07/26 02:54:38;;;;;;;4.53;2.55;;;12.70;30.00;;;;;;5035282;28;20037;-65
2023/07/26 02:57:03;;;;;;;4.38;2.70;;;12.80;24.00;;;;;;5035318;28;20116;-64
2023/07/26 02:59:29;;;;;;;5.22;2.78;;;12.30;30.20;;;;;;5035229;28;20034;-64
2023/07/26 03:01:55;;;;;;;6.20;3.13;;;12.40;29.30;;;;;;5035198;28;20036;-64
2023/07/26 03:04:20;;;;;;;4.68;3.05;;;12.70;47.80;;;;;;5034761;28;20111;-64
2023/07/26 03:06:46;;;;;;;6.15;2.72;;;12.40;41.70;;;;;;5035072;28;20531;-64
2023/07/26 03:09:12;;;;;;;5.88;2.35;;;12.30;46.80;;;;;;5033510;28;20493;-64
2023/07/26 03:11:37;;;;;;;4.80;2.83;;;12.20;56.00;;;;;;5035018;28;20621;-64
2023/07/26 03:14:03;;;;;;;4.47;2.83;;;12.20;51.50;;;;;;5034901;28;20048;-64
2023/07/26 03:16:28;;;;;;;6.05;3.20;;;12.30;54.90;;;;;;5034611;28;20049;-64
2023/07/26 03:18:54;;;;;;;4.32;2.78;;;12.30;55.30;;;;;;5034818;28;20034;-64
2023/07/26 03:21:20;;;;;;;5.57;2.65;;;12.10;56.10;;;;;;5034562;28;20041;-65
2023/07/26 03:23:45;;;;;;;3.38;2.40;;;12.10;58.10;;;;;;5034774;28;20045;-64
2023/07/26 03:26:12;;;;;;;3.35;2.50;;;12.40;65.80;;;;;;5034780;28;20045;-64
2023/07/26 03:28:38;;;;;;;3.75;2.72;;;12.20;71.40;;;;;;5034717;28;20045;-65
2023/07/26 03:31:04;;;;;;;5.72;2.95;;;13.10;69.90;;;;;;5034330;28;20175;-64
2023/07/26 03:33:29;;;;;;;4.88;2.70;;;12.40;77.80;;;;;;5034130;28;20496;-64
2023/07/26 03:35:55;;;;;;;4.43;2.55;;;12.30;75.80;;;;;;5034502;28;20044;-64
2023/07/26 03:38:21;;;;;;;5.65;2.90;;;12.30;79.80;;;;;;5033005;28;20041;-64
2023/07/26 03:40:46;;;;;;;4.15;2.75;;;12.10;79.30;;;;;;5034392;28;20045;-64
2023/07/26 03:43:12;;;;;;;7.78;3.28;;;12.10;80.40;;;;;;5034353;28;20117;-64
2023/07/26 03:45:38;;;;;;;4.50;2.70;;;12.00;82.70;;;;;;5034002;28;20477;-64
2023/07/26 03:48:03;;;;;;;4.20;2.83;;;12.10;87.10;;;;;;5034351;28;20116;-64
2023/07/26 03:50:29;;;;;;;7.03;3.05;;;12.00;86.80;;;;;;5034253;28;20034;-65
2023/07/26 03:52:55;;;;;;;5.97;3.17;;;12.10;84.40;;;;;;5032967;28;20076;-64
2023/07/26 03:55:20;;;;;;;3.70;2.60;;;11.90;87.20;;;;;;5033863;28;20460;-64
2023/07/26 03:57:46;;;;;;;5.22;2.90;;;12.40;88.00;;;;;;5034023;28;20482;-65
2023/07/26 04:00:12;;;;;;;4.38;3.00;;;12.00;88.10;;;;;;5034112;28;20038;-65
2023/07/26 04:02:38;;;;;;;4.95;3.40;;;12.00;88.40;;;;;;5033859;28;20409;-65
2023/07/26 04:05:04;;;;;;;6.07;3.47;;;12.30;89.30;;;;;;5034008;28;20041;-65
2023/07/26 04:07:29;;;;;;;4.38;3.05;;;12.10;88.90;;;;;;5033612;28;20087;-65
2023/07/26 04:09:57;;;;;;;5.05;3.28;;;12.20;87.50;;;;;;5033901;28;20136;-64
2023/07/26 04:12:23;;;;;;;7.43;2.97;;;12.10;88.50;;;;;;5033873;28;20037;-64
2023/07/26 04:14:49;;;;;;;6.15;3.20;;;12.20;87.30;;;;;;5033649;28;20040;-64
2023/07/26 04:17:14;;;;;;;5.03;2.90;;;12.50;85.00;;;;;;5033477;28;20041;-64
2023/07/26 04:19:40;;;;;;;4.55;2.33;;;12.20;82.70;;;;;;5033727;28;20040;-64
2023/07/26 04:22:06;;;;;;;3.92;2.80;;;12.20;79.30;;;;;;5032524;28;20045;-64
2023/07/26 04:24:31;;;;;;;4.28;2.85;;;12.30;80.40;;;;;;5033657;28;20033;-64
2023/07/26 04:26:57;;;;;;;3.17;2.35;;;13.10;79.30;;;;;;5033620;28;20045;-64
2023/07/26 04:29:23;;;;;;;4.70;3.10;;;12.50;80.00;;;;;;5033613;28;20477;-64
2023/07/26 04:31:48;;;;;;;6.57;2.85;;;12.80;81.30;;;;;;5033486;28;20045;-64
2023/07/26 04:34:14;;;;;;;5.95;2.92;;;12.50;79.90;;;;;;5033441;28;20466;-64
2023/07/26 04:36:41;;;;;;;5.03;2.60;;;13.30;82.10;;;;;;5033421;28;20034;-64
2023/07/26 04:39:07;;;;;;;4.05;2.75;;;12.70;82.00;;;;;;5033373;28;20088;-65
2023/07/26 04:41:32;;;;;;;9.23;3.17;;;12.90;80.70;;;;;;5033411;28;20029;-64
2023/07/26 04:43:58;;;;;;;5.55;3.17;;;12.90;79.70;;;;;;5032906;28;20045;-64
2023/07/26 04:46:23;;;;;;;4.97;2.63;;;12.80;81.40;;;;;;5033339;28;20063;-65
2023/07/26 04:48:49;;;;;;;5.55;3.05;;;13.00;78.60;;;;;;5033283;28;20100;-64
2023/07/26 04:51:15;;;;;;;6.80;3.10;;;13.00;79.20;;;;;;5033280;28;20081;-64
2023/07/26 04:53:40;;;;;;;6.15;2.85;;;13.70;82.30;;;;;;5033112;28;20539;-64
2023/07/26 04:56:06;;;;;;;3.92;2.75;;;13.70;79.70;;;;;;5033235;28;20053;-64
2023/07/26 04:58:32;;;;;;;4.68;2.72;;;12.80;90.10;;;;;;5033197;28;20389;-64
2023/07/26 05:00:58;;;;;;;4.82;2.80;;;13.10;98.40;;;;;;5033211;28;20133;-64
2023/07/26 05:03:24;;;;;;;3.58;2.38;;;12.80;90.70;;;;;;5032861;28;20061;-64
2023/07/26 05:05:50;;;;;;;5.47;2.85;;;13.30;73.30;;;;;;5033046;28;20096;-65
2023/07/26 05:08:17;;;;;;;7.30;2.88;;;13.00;64.10;;;;;;5032705;28;20052;-64
2023/07/26 05:10:42;;;;;;;4.95;2.90;;;12.80;61.90;;;;;;5032749;28;20079;-65
2023/07/26 05:13:08;;;;;;;4.35;2.70;;;12.80;59.50;;;;;;5032957;28;20077;-65
2023/07/26 05:15:33;;;;;;;4.22;2.75;;;12.90;55.10;;;;;;5032977;28;20499;-65
2023/07/26 05:17:59;;;;;;;5.03;2.65;;;12.80;48.20;;;;;;5032928;28;20108;-64
2023/07/26 05:20:25;;;;;;;4.05;2.53;;;12.90;47.30;;;;;;5032981;28;20477;-64
2023/07/26 05:22:51;;;;;;;3.47;2.20;;;12.90;43.60;;;;;;5032920;28;20033;-65
2023/07/26 05:25:18;;;;;;;2.85;2.03;;;13.20;43.30;;;;;;5032985;28;20029;-64
2023/07/26 05:27:44;;;;;;;4.25;2.33;;;12.90;38.00;;;;;;5032872;28;20124;-64
2023/07/26 05:30:09;;;;;;;3.75;2.13;;;12.90;36.10;;;;;;5032874;28;20533;-64
2023/07/26 05:32:35;;;;;;;4.93;2.55;;;13.00;31.90;;;;;;5032540;28;20125;-64
2023/07/26 05:35:02;;;;;;;5.45;2.42;;;13.10;28.70;;;;;;5032753;28;20045;-64
2023/07/26 05:37:29;;;;;;;2.83;1.98;;;13.10;22.70;;;;;;5032452;28;20041;-64
2023/07/26 05:39:55;;;;;;;3.53;1.98;;;12.80;14.60;;;;;;5033086;28;20041;-64
2023/07/26 05:42:20;;;;;;;5.82;2.15;;;13.20;2.00;;;;;;5032735;28;20040;-65
2023/07/26 05:44:46;;;;;;;3.35;1.80;;;13.20;1.00;;;;;;5032954;28;20049;-64
2023/07/26 05:47:13;;;;;;;3.63;1.80;;;13.30;1.00;;;;;;5032751;28;20124;-69
2023/07/26 05:49:42;;;;;;;2.88;1.67;;;13.30;1.00;;;;;;5032706;28;20041;-69
2023/07/26 05:52:08;;;;;;;3.53;1.80;;;13.40;1.00;;;;;;5032389;28;20045;-69
2023/07/26 05:54:34;;;;;;;3.45;1.77;;;14.10;1.00;;;;;;5031163;28;20124;-68
2023/07/26 05:56:59;;;;;;;3.20;1.90;;;13.40;1.00;;;;;;5036412;28;20540;-67
2023/07/26 05:59:25;;;;;;;4.95;2.20;;;13.50;1.00;;;;;;5036364;28;20117;-64
2023/07/26 06:01:51;;;;;;;2.22;1.70;;;13.60;1.00;;;;;;5036281;28;20045;-67
2023/07/26 06:04:17;;;;;;;2.90;1.80;;;13.60;1.00;;;;;;5035853;28;20412;-66
2023/07/26 06:06:42;;;;;;;2.05;1.33;;;13.70;1.00;;;;;;5035980;28;20046;-65
2023/07/26 06:09:09;;;;;;;3.33;1.60;;;13.60;1.00;;;;;;5036176;28;20067;-69
2023/07/26 06:11:34;;;;;;;2.92;1.80;;;13.70;1.00;;;;;;5034636;28;20544;-64
2023/07/26 06:14:00;;;;;;;2.28;1.48;;;13.60;1.00;;;;;;5036025;28;20197;-64
2023/07/26 06:16:27;;;;;;;4.78;2.10;;;13.60;1.00;;;;;;5035885;28;20060;-66
2023/07/26 06:18:52;;;;;;;3.70;2.15;;;13.50;1.00;;;;;;5035936;28;20048;-64
2023/07/26 06:21:19;;;;;;;4.32;1.90;;;13.40;1.00;;;;;;5035969;28;20481;-64
2023/07/26 06:23:45;;;;;;;3.30;1.77;;;13.40;11.10;;;;;;5035927;28;20045;-63
2023/07/26 06:26:11;;;;;;;4.88;1.80;;;13.40;32.60;;;;;;5035908;28;20405;-63
2023/07/26 06:28:37;;;;;;;3.78;2.15;;;13.50;49.50;;;;;;5035660;28;20044;-63
2023/07/26 06:31:03;;;;;;;5.57;2.45;;;13.50;62.30;;;;;;5035728;28;20041;-63
2023/07/26 06:33:29;;;;;;;4.22;2.30;;;13.60;73.70;;;;;;5035640;28;20528;-63
2023/07/26 06:35:54;;;;;;;2.72;1.70;;;13.60;64.80;;;;;;5035625;28;20150;-63
2023/07/26 06:38:20;;;;;;;4.35;1.52;;;14.40;71.70;;;;;;5035558;28;20033;-64
2023/07/26 06:40:46;;;;;;;4.43;2.20;;;13.90;65.00;;;;;;5050586;28;20484;-64
2023/07/26 06:43:12;;;;;;;2.75;1.80;;;13.80;70.00;;;;;;5035577;28;20392;-63
2023/07/26 06:45:37;;;;;;;3.78;2.60;;;13.80;85.50;;;;;;5035145;28;20042;-63
2023/07/26 06:48:03;;;;;;;4.03;1.77;;;13.90;79.10;;;;;;5035499;28;20040;-63
2023/07/26 06:50:29;;;;;;;3.58;2.03;;;14.00;78.00;;;;;;5035173;28;20527;-64
2023/07/26 06:52:55;;;;;;;3.05;2.00;;;14.10;81.40;;;;;;5035368;28;20040;-63
2023/07/26 06:55:20;;;;;;;3.83;2.33;;;14.10;84.50;;;;;;5035296;28;20122;-63
2023/07/26 06:57:46;;;;;;;4.75;2.00;;;14.10;62.90;;;;;;5033792;28;20477;-65
2023/07/26 07:00:14;;;;;;;3.10;1.80;;;14.10;53.80;;;;;;5035199;28;20037;-63
2023/07/26 07:02:40;;;;;;;3.92;2.13;;;14.00;43.20;;;;;;5034725;28;20053;-63
2023/07/26 07:05:06;;;;;;;4.85;2.28;;;14.00;44.90;;;;;;5035088;28;20396;-63
2023/07/26 07:07:32;;;;;;;3.03;2.03;;;14.00;58.40;;;;;;5034673;28;20033;-63
2023/07/26 07:09:57;;;;;;;4.57;2.28;;;14.00;66.50;;;;;;5034955;28;20393;-63
2023/07/26 07:12:23;;;;;;;3.28;2.22;;;14.10;80.50;;;;;;5034979;28;20108;-63
2023/07/26 07:14:48;;;;;;;3.20;1.95;;;14.10;83.10;;;;;;5034794;28;20033;-63
2023/07/26 07:17:14;;;;;;;3.38;2.13;;;14.20;80.60;;;;;;5034904;28;20068;-63
2023/07/26 07:19:39;;;;;;;5.00;2.30;;;14.40;80.20;;;;;;5034863;28;20072;-63
2023/07/26 07:22:05;;;;;;;4.05;2.08;;;14.10;90.10;;;;;;5034790;28;20091;-63
2023/07/26 07:24:33;;;;;;;5.45;2.85;;;14.00;92.80;;;;;;5033218;28;20041;-63
2023/07/26 07:26:59;;;;;;;5.43;2.58;;;13.80;93.10;;;;;;5034677;28;20108;-62
2023/07/26 07:29:25;;;;;;;4.53;2.90;;;13.80;94.00;;;;;;5034698;28;20171;-63
2023/07/26 07:31:50;;;;;;;7.05;2.90;;;13.70;95.20;;;;;;5034613;28;20045;-63
2023/07/26 07:34:16;;;;;;;3.83;2.45;;;13.60;97.90;;;;;;5034541;28;20118;-63
2023/07/26 07:36:42;;;;;;;5.82;2.92;;;13.60;99.90;;;;;;5034564;28;20100;-62
2023/07/26 07:39:09;;;;;;;5.15;2.70;;;14.20;99.90;;;;;;5034524;28;20037;-63
2023/07/26 07:41:36;;;;;;;4.75;2.67;;;13.50;99.90;;;;;;5034490;28;20100;-63
2023/07/26 07:44:02;;;;;;;4.55;2.80;;;14.40;99.90;;;;;;5034419;28;20408;-63
2023/07/26 07:46:28;;;;;;;8.05;2.58;;;13.40;99.90;;;;;;5034265;28;20056;-62
2023/07/26 07:48:55;;;;;;;4.97;2.42;;;13.40;99.90;;;;;;5033030;28;20045;-62
2023/07/26 07:51:21;;;;;;;6.57;2.65;;;13.40;99.90;;;;;;5033018;28;20076;-62
2023/07/26 07:53:50;;;;;;;7.05;3.17;;;13.40;99.90;;;;;;5033702;28;20505;-63
2023/07/26 07:56:16;;;;;;;6.38;3.05;;;13.40;99.90;;;;;;5033856;28;20048;-63
2023/07/26 07:58:42;;;;;;;5.43;3.00;;;13.50;99.90;;;;;;5034083;28;20041;-63
2023/07/26 08:01:07;;;;;;;4.47;2.85;;;13.80;99.90;;;;;;5034075;28;20424;-63
2023/07/26 08:03:34;;;;;;;3.40;2.65;;;13.60;99.90;;;;;;5033689;28;20565;-63
2023/07/26 08:05:59;;;;;;;5.47;3.10;;;13.70;99.90;;;;;;5033974;28;20444;-63
2023/07/26 08:08:25;;;;;;;5.60;2.85;;;13.90;99.90;;;;;;5033951;28;20037;-63
2023/07/26 08:10:51;;;;;;;4.57;2.70;;;14.00;99.90;;;;;;5033541;28;20520;-63
2023/07/26 08:13:16;;;;;;;3.45;2.80;;;14.00;99.90;;;;;;5033780;28;20124;-63
2023/07/26 08:15:43;;;;;;;5.55;2.47;;;14.10;99.90;;;;;;5033806;28;20414;-63
2023/07/26 08:18:09;;;;;;;3.53;2.25;;;14.30;99.90;;;;;;5033124;28;20117;-63
2023/07/26 08:20:35;;;;;;;2.92;2.00;;;14.30;99.90;;;;;;5033722;28;20397;-63
2023/07/26 08:23:04;;;;;;;3.13;1.58;;;14.50;99.90;;;;;;5033692;28;20116;-63
2023/07/26 08:25:30;;;;;;;2.67;1.40;;;14.70;99.90;;;;;;5033572;28;20087;-63
2023/07/26 08:27:55;;;;;;;1.65;1.15;;;14.70;99.90;;;;;;5032039;28;20045;-62
2023/07/26 08:30:21;;;;;;;1.52;1.10;;;15.10;99.90;;;;;;5033601;28;20034;-63
2023/07/26 08:32:47;;;;;;;1.35;0.95;;;14.60;99.90;;;;;;5033526;28;20033;-66
2023/07/26 08:35:13;;;;;;;2.47;0.90;;;14.40;99.90;;;;;;5033168;28;20044;-62
2023/07/26 08:37:39;;;;;;;1.45;1.02;;;14.20;99.90;;;;;;5033456;28;20037;-63
2023/07/26 08:40:05;;;;;;;2.17;0.98;;;14.30;99.90;;;;;;5033505;28;20116;-63
2023/07/26 08:42:31;;;;;;;2.17;1.00;;;14.20;99.90;;;;;;5033452;28;20523;-63
2023/07/26 08:44:59;;;;;;;1.25;0.88;;;14.30;99.90;;;;;;5033406;28;20103;-63
2023/07/26 08:47:27;;;;;;;3.03;1.08;;;14.60;99.90;;;;;;5033412;28;20045;-63
2023/07/26 08:49:53;;;;;;;2.33;1.40;;;14.50;99.90;;;;;;5033340;28;20053;-63
2023/07/26 08:52:19;;;;;;;2.92;1.67;;;15.30;99.90;;;;;;5033244;28;20111;-63
2023/07/26 08:54:47;;;;;;;2.80;1.73;;;14.80;99.90;;;;;;5031535;28;20444;-64
2023/07/26 08:57:13;;;;;;;3.33;1.85;;;;;;;;;;5032892;28;20040;-63
2023/07/26 08:59:39;;;;;;;3.58;1.95;;;15.40;99.90;;;;;;5033072;28;20041;-63
2023/07/26 09:02:05;;;;;;;2.92;1.90;;;15.50;99.90;;;;;;5033064;28;20041;-63
2023/07/26 09:04:31;;;;;;;3.92;1.95;;;;;;;;;;5032703;28;20138;-63
2023/07/26 09:07:01;;;;;;;3.35;1.80;;;;;;;;;;5033093;28;20048;-63
2023/07/26 09:09:27;;;;;;;3.13;1.90;;;;;;;;;;5032822;28;20045;-63
2023/07/26 09:11:53;;;;;;;3.00;1.80;;;;;;;;;;5033080;28;20046;-63
2023/07/26 09:14:19;;;;;;;4.25;2.00;;;;;;;;;;5032933;28;20052;-63
2023/07/26 09:16:45;;;;;;;2.45;1.90;;;;;;;;;;5032761;28;20073;-63
2023/07/26 09:19:11;;;;;;;3.25;2.03;;;;;;;;;;5032677;28;20038;-63
2023/07/26 09:21:37;;;;;;;3.28;2.13;;;;;;;;;;5032917;28;20088;-63
2023/07/26 09:24:04;;;;;;;3.80;2.00;;;;;;;;;;5032652;28;20045;-63
2023/07/26 09:26:40;;;;;;;3.30;1.98;;;;;;;;;;5032941;28;20048;-63
2023/07/26 09:29:08;;;;;;;3.25;2.08;;;;;;;;;;5032609;28;20251;-64
2023/07/26 09:31:34;;;;;;;4.32;2.35;;;;;;;;;;5036634;28;20051;-63
2023/07/26 09:34:05;;;;;;;2.40;1.77;;;;;;;;;;5036832;28;20048;-63
2023/07/26 09:36:51;;;;;;;4.47;2.40;;;;;;;;;;5036429;28;20053;-63
2023/07/26 09:39:18;;;;;;;5.28;2.17;;;;;;;;;;5036534;28;20404;-63
2023/07/26 09:41:46;;;;;;;4.47;2.38;;;16.80;99.90;;;;;;5035189;28;20072;-63
2023/07/26 09:44:18;;;;;;;2.88;2.10;;;16.80;99.90;;;;;;5036384;28;20041;-63
2023/07/26 09:46:53;;;;;;;2.95;1.83;;;16.80;99.90;;;;;;5036549;28;20404;-64
2023/07/26 09:49:24;;;;;;;3.25;1.88;;;16.70;99.90;;;;;;5036475;28;20048;-63
2023/07/26 09:51:54;;;;;;;3.20;1.85;;;16.80;99.90;;;;;;5036153;28;20045;-63
2023/07/26 09:54:21;;;;;;;2.67;1.70;;;16.70;99.90;;;;;;5036066;28;20444;-63
2023/07/26 09:56:47;;;;;;;3.47;1.90;;;16.90;99.90;;;;;;5036017;28;20276;-63
2023/07/26 09:59:14;;;;;;;3.25;1.90;;;16.80;95.30;;;;;;5036250;28;20063;-63
2023/07/26 10:01:45;;;;;;;5.28;1.90;;;17.00;99.30;;;;;;5036227;28;20029;-63
2023/07/26 10:04:27;;;;;;;2.47;1.38;;;17.20;98.10;;;;;;5034506;28;20062;-63
2023/07/26 10:06:56;;;;;;;3.67;1.92;;;17.60;97.20;;;;;;5036109;28;20080;-63
2023/07/26 10:09:24;;;;;;;5.07;2.17;;;17.60;90.30;;;;;;5036056;28;20046;-63
2023/07/26 10:11:51;;;;;;;3.33;1.65;;;17.70;93.60;;;;;;5036076;28;20561;-63
2023/07/26 10:14:20;;;;;;;2.15;1.42;;;17.10;93.30;;;;;;5034600;28;20175;-63
2023/07/26 10:16:47;;;;;;;2.92;1.60;;;17.20;84.40;;;;;;5035965;28;20443;-63
2023/07/26 10:19:13;;;;;;;2.97;1.25;;;17.20;91.30;;;;;;5036083;28;20423;-63
2023/07/26 10:21:42;;;;;;;3.53;1.40;;;17.50;84.90;;;;;;5035960;28;20037;-65
2023/07/26 10:24:11;;;;;;;2.47;1.08;;;17.50;86.90;;;;;;5035946;28;20041;-64
2023/07/26 10:26:38;;;;;;;1.95;0.95;;;17.50;83.30;;;;;;5034338;28;20041;-64
2023/07/26 10:29:04;;;;;;;1.30;0.75;;;17.40;69.30;;;;;;5035884;28;20041;-64
2023/07/26 10:31:30;;;;;;;1.80;1.00;;;17.40;75.80;;;;;;5050788;28;20045;-64
2023/07/26 10:33:57;;;;;;;2.83;1.02;;;17.30;78.30;;;;;;5035721;28;20041;-64
2023/07/26 10:36:33;;;;;;;1.85;1.20;;;17.30;57.70;;;;;;5035457;28;20037;-64
2023/07/26 10:39:11;;;;;;;2.33;1.20;;;17.20;60.50;;;;;;5034381;28;20037;-64
2023/07/26 10:41:46;;;;;;;2.22;1.27;;;17.30;73.20;;;;;;5034918;28;20076;-64
2023/07/26 10:44:11;;;;;;;3.05;1.50;;;17.30;71.50;;;;;;5035620;28;20052;-64
2023/07/26 10:47:01;;;;;;;2.80;1.65;;;17.40;73.80;;;;;;5035498;28;20485;-67
2023/07/26 10:49:29;;;;;;;2.25;1.05;;;17.50;70.10;;;;;;5035508;28;20075;-65
2023/07/26 10:52:03;;;;;;;3.45;1.60;;;17.50;73.20;;;;;;5035140;28;20046;-65
2023/07/26 10:54:34;;;;;;;3.35;1.73;;;17.60;74.70;;;;;;5035090;28;20046;-65
2023/07/26 10:57:27;;;;;;;2.70;1.00;;;17.60;60.70;;;;;;5035384;28;20393;-65
2023/07/26 10:59:59;;;;;;;2.03;1.25;;;17.70;49.00;;;;;;5034972;28;20044;-65
2023/07/26 11:02:37;;;;;;;2.90;1.25;;;17.80;56.00;;;;;;5035059;28;20044;-65
2023/07/26 11:05:07;;;;;;;1.75;1.05;;;18.00;47.70;;;;;;5035225;28;20438;-66
2023/07/26 11:07:59;;;;;;;2.08;1.15;;;18.00;56.50;;;;;;5034843;28;20041;-65
2023/07/26 11:10:48;;;;;;;2.20;1.42;;;18.10;18.70;;;;;;5033872;28;20080;-66
2023/07/26 11:13:19;;;;;;;2.17;1.33;;;18.30;42.40;;;;;;5035046;28;20049;-66
2023/07/26 11:15:50;;;;;;;1.60;1.05;;;18.40;45.50;;;;;;5034989;28;20079;-66
2023/07/26 11:18:17;;;;;;;1.95;1.08;;;18.40;28.20;;;;;;5033659;28;20049;-66
2023/07/26 11:20:48;;;;;;;1.73;1.10;;;18.60;42.80;;;;;;5034821;28;20045;-65
2023/07/26 11:23:17;;;;;;;3.05;1.08;;;18.60;40.40;;;;;;5033516;28;20049;-65
2023/07/26 11:25:45;;;;;;;1.98;1.00;;;18.60;35.40;;;;;;5034794;28;20072;-66
2023/07/26 11:28:11;;;;;;;5.22;1.55;;;18.80;40.60;;;;;;5034491;28;20516;-66
2023/07/26 11:30:39;;;;;;;1.98;1.10;;;18.60;24.80;;;;;;5034620;28;20034;-66
2023/07/26 11:33:05;;;;;;;2.50;1.38;;;18.60;39.50;;;;;;5034645;28;20037;-66
2023/07/26 11:35:40;;;;;;;2.45;1.45;;;18.70;36.40;;;;;;5034758;28;20033;-66
2023/07/26 11:38:06;;;;;;;1.50;1.10;;;18.80;30.50;;;;;;5034429;28;20481;-66
2023/07/26 11:40:41;;;;;;;2.22;1.05;;;18.90;99.90;;;;;;5034496;28;20041;-66
2023/07/26 11:43:07;;;;;;;3.92;1.08;;;19.00;1.00;;;;;;5033201;28;20048;-66
2023/07/26 11:45:34;;;;;;;1.60;0.90;;;19.70;27.20;;;;;;5034362;28;20485;-66
2023/07/26 11:48:00;;;;;;;2.53;1.10;;;19.30;99.90;;;;;;5034336;28;20135;-66
2023/07/26 11:50:26;;;;;;;3.15;1.25;;;19.30;99.90;;;;;;5034317;28;20049;-66
2023/07/26 11:53:05;;;;;;;2.13;1.10;;;;;;;;;;5033257;28;20041;-67
2023/07/26 11:55:37;;;;;;;1.40;0.90;;;19.40;99.90;;;;;;5032687;28;20045;-66
2023/07/26 11:58:03;;;;;;;1.23;0.60;;;19.40;99.90;;;;;;5033862;28;20041;-66
2023/07/26 12:00:34;;;;;;;1.38;0.60;;;19.30;99.90;;;;;;5034085;28;20044;-63
2023/07/26 12:03:02;;;;;;;1.48;0.80;;;19.50;99.90;;;;;;5033812;28;20057;-64
2023/07/26 12:05:28;;;;;;;1.25;0.75;;;19.50;99.90;;;;;;5034212;28;20058;-64
2023/07/26 12:07:56;;;;;;;1.50;0.70;;;19.60;99.90;;;;;;5033969;28;20033;-64
2023/07/26 12:10:38;;;;;;;0.90;0.70;;;19.60;99.90;;;;;;5033680;28;20087;-64
2023/07/26 12:13:17;;;;;;;1.77;0.77;;;19.50;20.90;;;;;;5033588;28;20087;-63
2023/07/26 12:15:54;;;;;;;1.73;0.80;;;19.40;11.30;;;;;;5033878;28;20065;-65
2023/07/26 12:18:21;;;;;;;1.40;0.65;;;19.20;1.00;;;;;;5033802;28;20059;-66
2023/07/26 12:21:02;;;;;;;1.23;0.82;;;19.00;72.40;;;;;;5033423;28;20120;-66
2023/07/26 12:23:29;;;;;;;3.00;0.77;;;18.60;90.60;;;;;;5033361;28;20033;-66
2023/07/26 12:26:00;;;;;;;1.73;0.80;;;18.40;99.90;;;;;;5033549;28;20424;-66
2023/07/26 12:28:26;;;;;;;1.45;0.75;;;18.10;99.90;;;;;;5033245;28;20042;-66
2023/07/26 12:30:56;;;;;;;2.35;0.75;;;19.00;1.00;;;;;;5033237;28;20049;-66
2023/07/26 12:33:23;;;;;;;1.92;0.65;;;18.20;99.90;;;;;;5033143;28;20041;-66
2023/07/26 12:35:54;;;;;;;1.92;0.90;;;18.30;1.00;;;;;;5033410;28;20043;-66
2023/07/26 12:38:23;;;;;;;;;;;17.80;90.00;;;;;;5033783;28;20033;-66
2023/07/26 12:40:52;;;;;;;1.67;0.80;;;17.60;99.90;;;;;;5032957;28;19917;-66
2023/07/26 12:43:31;;;;;;;1.88;0.70;;;;;;;;;;5033328;28;20546;-66
2023/07/26 12:46:00;;;;;;;4.30;1.40;;;17.20;99.90;;;;;;5033369;28;20065;-65
2023/07/26 12:48:26;;;;;;;2.38;0.93;;;16.90;1.00;;;;;;5032120;28;20462;-65
2023/07/26 12:50:54;;;;;;;3.03;1.17;;;16.70;99.90;;;;;;5032915;28;20040;-65
2023/07/26 12:53:21;;;;;;;1.83;0.90;;;16.60;1.00;;;;;;5031690;28;20040;-65
2023/07/26 12:55:47;;;;;;;2.85;1.15;;;16.50;1.00;;;;;;5033231;28;20464;-66